Terminal Aerodrome Forecast
Issued by NWS Portland, ME

Home | Current Version | Previous Version | Text Only | Print | Product List | Glossary On
Versions: 1 2 3 4 5 6 7 8 9 10 11 12 13 14 15 16 17 18 19 20 21 22
000
FTUS41 KGYX 011733
TAFCON
TAF
KCON 011733Z 0118/0218 26009G16KT P6SM VCSH SCT050 BKN090
     FM012000 27010G16KT P6SM SCT080
     FM020000 00000KT P6SM SCT060
      TEMPO 0206/0210 2SM BR SCT002
     FM021200 28004KT P6SM SKC=

USA.gov is the U.S. government's official web portal to all federal, state and local government web resources and services.